createdAt,value
2019-02-16T16:09:34.465Z,94.75
2019-02-16T16:10:34.242Z,93.46
2019-02-16T16:11:34.385Z,93.13
2019-02-16T16:12:34.571Z,93.13
2019-02-16T16:13:34.728Z,92.97
2019-02-16T16:14:34.884Z,92.97
2019-02-16T16:15:41.830Z,92.97
2019-02-16T16:16:37.285Z,92.97
2019-02-16T16:17:35.459Z,93.13
2019-02-16T16:18:35.613Z,93.30
2019-02-16T16:19:35.720Z,93.30
2019-02-16T16:20:35.985Z,93.46
2019-02-16T16:21:36.137Z,93.30
2019-02-16T16:22:36.235Z,93.46
2019-02-16T16:23:36.522Z,93.30
2019-02-16T16:24:36.647Z,93.46
2019-02-16T16:25:37.504Z,93.78
2019-02-16T16:26:38.007Z,93.94
2019-02-16T16:27:38.035Z,93.94
2019-02-16T16:28:37.357Z,93.78
2019-02-16T16:29:37.511Z,94.10
2019-02-16T16:30:37.697Z,94.10
2019-02-16T16:31:37.862Z,94.10
2019-02-16T16:32:38.091Z,94.26
2019-02-16T16:33:38.214Z,94.10
2019-02-16T16:34:38.304Z,101.51
2019-02-16T16:35:39.506Z,103.61
2019-02-16T16:36:38.673Z,103.12
2019-02-16T16:37:38.931Z,103.12
2019-02-16T16:38:39.026Z,103.12
2019-02-16T16:39:39.153Z,103.12
2019-02-16T16:40:39.961Z,103.29
2019-02-16T16:41:39.501Z,103.12
2019-02-16T16:42:39.767Z,103.12
2019-02-16T16:43:39.931Z,103.29
2019-02-16T16:44:40.104Z,103.61
2019-02-16T16:45:40.180Z,103.45
2019-02-16T16:46:40.490Z,103.61
2019-02-16T16:47:40.595Z,103.77
2019-02-16T16:48:40.714Z,104.09
2019-02-16T16:49:40.811Z,103.93
2019-02-16T16:50:41.060Z,103.93
2019-02-16T16:51:41.224Z,104.25
2019-02-16T16:52:41.375Z,104.41
2019-02-16T16:53:41.531Z,104.41
2019-02-16T16:54:41.617Z,104.25
2019-02-16T16:55:41.721Z,104.25
2019-02-16T16:56:42.005Z,104.58
2019-02-16T16:57:42.120Z,104.58
2019-02-16T16:58:42.222Z,104.90
2019-02-16T16:59:42.537Z,104.90
2019-02-16T17:00:42.674Z,104.90
2019-02-16T17:01:42.801Z,105.22
2019-02-16T17:02:42.903Z,105.54
2019-02-16T17:17:57.854Z,107.96
2019-02-16T17:18:58.054Z,107.15
2019-02-16T17:19:58.246Z,106.99
2019-02-16T17:20:58.432Z,108.93
2019-02-16T17:21:58.634Z,98.45
2019-02-16T17:22:58.813Z,97.49
2019-02-16T17:23:58.998Z,97.65
2019-02-16T17:24:59.167Z,97.81
2019-02-16T17:25:59.340Z,97.65
2019-02-16T17:26:59.502Z,97.65
2019-02-16T17:27:59.667Z,97.65
2019-02-16T17:28:59.835Z,97.49
2019-02-16T17:29:59.972Z,97.65
2019-02-16T17:31:00.128Z,97.65
2019-02-16T17:32:00.289Z,97.81
2019-02-16T17:33:00.447Z,97.81
2019-02-16T17:34:00.607Z,97.81
2019-02-16T17:35:00.827Z,97.81
2019-02-16T17:36:01.009Z,97.81
2019-02-16T17:37:01.180Z,97.65
2019-02-16T17:38:01.356Z,97.97
2019-02-16T17:39:01.507Z,97.81
2019-02-16T17:40:01.657Z,97.97
2019-02-16T17:41:02.895Z,97.65
2019-02-16T17:42:02.025Z,97.81
2019-02-16T17:43:02.187Z,97.97
2019-02-16T17:44:02.356Z,97.81
2019-02-16T17:45:02.518Z,97.81
2019-02-16T17:46:02.676Z,97.97
2019-02-16T17:47:02.832Z,97.65
2019-02-16T17:48:04.012Z,97.81
2019-02-16T17:49:03.134Z,97.65
2019-02-16T17:50:03.281Z,97.97
2019-02-16T17:51:03.428Z,97.81
2019-02-16T17:52:03.608Z,97.97
2019-02-16T17:53:03.782Z,97.97
2019-02-16T17:54:08.399Z,98.13
2019-02-16T17:55:05.137Z,97.97
2019-02-16T17:56:04.329Z,98.13
2019-02-16T17:57:04.546Z,97.65
2019-02-16T17:58:04.652Z,97.97
2019-02-16T17:59:04.822Z,97.81
2019-02-16T18:31:27.863Z,98.45
2019-02-16T18:32:31.448Z,98.29
2019-02-16T18:33:29.198Z,98.29
2019-02-16T18:34:28.381Z,98.29
2019-02-16T18:35:28.550Z,98.13
2019-02-16T18:36:28.765Z,98.29
2019-02-16T18:37:30.046Z,98.29
2019-02-16T18:38:29.900Z,98.29
2019-02-16T18:39:29.871Z,98.29
2019-02-16T18:40:29.701Z,97.97
2019-02-16T18:41:29.676Z,98.13
2019-02-16T18:42:29.855Z,98.13
2019-02-16T18:43:30.023Z,98.29
2019-02-16T18:44:30.247Z,98.29
2019-02-16T18:45:30.341Z,98.29
2019-02-16T18:46:30.590Z,98.45
2019-02-16T18:47:30.815Z,98.29
2019-02-16T18:48:31.108Z,98.29
2019-02-16T18:49:31.232Z,98.29
2019-02-16T18:50:31.850Z,98.29
2019-02-16T18:51:32.675Z,98.13
2019-02-16T18:52:31.745Z,98.29
2019-02-16T18:53:31.923Z,98.29
2019-02-16T18:54:32.170Z,98.29
2019-02-16T18:55:32.277Z,98.29
2019-02-16T18:56:32.568Z,98.45
2019-02-16T18:57:32.707Z,98.29
2019-02-16T18:58:32.876Z,98.45
2019-02-16T18:59:33.058Z,98.45
2019-02-16T20:01:33.918Z,98.77
2019-02-16T20:02:34.104Z,98.29
2019-02-16T20:03:34.270Z,98.45
2019-02-16T20:04:34.416Z,98.45
2019-02-16T20:05:34.589Z,98.29
2019-02-16T20:06:34.758Z,98.45
2019-02-16T20:07:34.944Z,98.45
2019-02-16T20:08:35.116Z,98.45
2019-02-16T20:09:35.297Z,98.29
2019-02-16T20:10:35.496Z,98.29
2019-02-16T20:11:35.664Z,98.29
2019-02-16T20:12:35.841Z,98.13
2019-02-16T20:13:36.001Z,98.29
2019-02-16T20:14:36.168Z,98.13
2019-02-16T20:15:36.318Z,98.13
2019-02-16T20:16:36.468Z,98.13
2019-02-16T20:17:36.607Z,98.29
2019-02-16T20:18:36.783Z,98.13
2019-02-16T20:19:36.941Z,98.45
2019-02-16T20:20:37.215Z,98.29
2019-02-16T20:21:37.276Z,98.13
2019-02-16T20:22:37.481Z,98.13
2019-02-16T20:23:37.675Z,98.29
2019-02-16T20:24:37.843Z,98.45
2019-02-16T20:25:38.005Z,98.13
2019-02-16T20:26:38.188Z,98.13
2019-02-16T20:27:38.346Z,98.29
2019-02-16T20:28:38.514Z,98.13
2019-02-16T20:29:38.661Z,98.13
2019-02-16T20:30:38.818Z,98.13
2019-02-16T20:31:39.017Z,98.13
2019-02-16T20:32:39.226Z,98.29
2019-02-16T20:33:39.419Z,98.13
2019-02-16T20:34:39.627Z,97.97
2019-02-16T20:35:39.841Z,98.13
2019-02-16T20:36:40.067Z,97.97
2019-02-16T20:37:40.236Z,98.13
2019-02-16T20:38:40.530Z,97.81
2019-02-16T20:39:40.580Z,98.29
2019-02-16T20:40:40.743Z,98.45
2019-02-16T20:41:40.921Z,98.13
2019-02-16T20:42:41.103Z,98.13
2019-02-16T20:43:41.268Z,98.13
2019-02-16T20:44:41.431Z,97.97
2019-02-16T20:45:41.635Z,97.97
2019-02-16T20:46:41.831Z,98.29
2019-02-16T20:47:42.012Z,97.97
2019-02-16T20:48:42.189Z,97.97
2019-02-16T20:49:42.355Z,98.13
2019-02-16T20:50:42.542Z,97.97
2019-02-16T20:51:42.711Z,97.97
2019-02-16T20:52:42.915Z,97.97
2019-02-16T20:53:43.088Z,98.13
2019-02-16T20:54:43.285Z,98.13
2019-02-16T20:55:43.529Z,97.97
2019-02-16T20:56:43.579Z,98.13
2019-02-16T20:57:47.806Z,98.13
2019-02-16T20:58:45.025Z,98.29
2019-02-16T20:59:44.170Z,98.29
2019-02-16T21:16:36.825Z,98.13
2019-02-16T21:17:37.050Z,97.97
2019-02-16T21:18:37.248Z,97.97
2019-02-16T21:19:37.500Z,97.97
2019-02-16T21:20:37.666Z,97.97
2019-02-16T21:21:37.848Z,98.13
2019-02-16T21:22:37.999Z,98.13
2019-02-16T21:23:38.208Z,97.97
2019-02-16T21:24:38.379Z,97.97
2019-02-16T21:25:38.549Z,98.13
2019-02-16T21:26:39.800Z,98.13
2019-02-16T21:27:39.896Z,97.97
2019-02-16T21:28:39.071Z,98.13
2019-02-16T21:29:39.250Z,97.97
2019-02-16T21:30:39.411Z,97.81
2019-02-16T21:31:39.558Z,97.97
2019-02-16T21:32:39.705Z,97.97
2019-02-16T21:33:39.891Z,97.97
2019-02-16T21:34:40.068Z,97.97
2019-02-16T21:35:40.267Z,97.97
2019-02-16T21:36:40.647Z,98.13
2019-02-16T21:37:40.559Z,97.97
2019-02-16T21:38:40.713Z,97.81
2019-02-16T21:39:40.881Z,97.81
2019-02-16T21:40:41.054Z,97.81
2019-02-16T21:41:41.216Z,97.81
2019-02-16T21:42:41.391Z,97.81
2019-02-16T21:43:41.552Z,98.13
2019-02-16T21:44:44.068Z,97.97
2019-02-16T21:45:41.928Z,97.97
2019-02-16T21:46:42.122Z,98.13
2019-02-16T21:47:42.296Z,97.97
2019-02-16T21:48:42.474Z,97.97
2019-02-16T21:49:42.652Z,97.97
2019-02-16T21:50:42.860Z,97.97
2019-02-16T21:51:43.054Z,97.97
2019-02-16T21:52:44.142Z,97.97
2019-02-16T21:53:43.416Z,98.13
2019-02-16T21:54:43.590Z,97.97
2019-02-16T21:55:43.761Z,98.45
2019-02-16T21:56:43.928Z,98.13
2019-02-16T21:57:44.109Z,98.29
2019-02-16T21:58:44.283Z,97.81
2019-02-16T21:59:44.493Z,97.81
